Time;durP1;ratioP1;P1;durP2;ratioP2;P2;SDS_P1;SDS_P2;PMS_P1;PMS_P2;Temp;Humidity;BMP_temperature;BMP_pressure;BME280_temperature;BME280_humidity;BME280_pressure;Samples;Min_cycle;Max_cycle;Signal;HPM_P1;HPM_P2
2021/11/18 00:00:15;;;;;;;32.90;14.32;;;9.30;91.10;;;;;;5077173;28;20071;-75
2021/11/18 00:02:41;;;;;;;27.17;14.32;;;9.30;91.20;;;;;;5077282;28;20017;-75
2021/11/18 00:05:12;;;;;;;29.40;13.38;;;9.30;91.10;;;;;;5077230;28;20037;-75
2021/11/18 00:07:47;;;;;;;22.77;13.27;;;9.30;90.90;;;;;;5077440;28;20060;-75
2021/11/18 00:10:25;;;;;;;24.27;12.07;;;9.30;90.90;;;;;;5077105;28;20028;-75
2021/11/18 00:12:53;;;;;;;25.58;12.68;;;9.20;90.80;;;;;;5077188;28;21561;-75
2021/11/18 00:15:21;;;;;;;33.05;15.30;;;9.30;90.80;;;;;;5077931;28;20099;-75
2021/11/18 00:17:46;;;;;;;32.28;15.02;;;9.30;91.10;;;;;;5080952;28;20017;-75
2021/11/18 00:20:14;;;;;;;32.53;14.38;;;9.30;91.00;;;;;;5081194;28;20032;-75
2021/11/18 00:22:45;;;;;;;30.30;15.07;;;9.30;90.90;;;;;;5081252;28;20033;-75
2021/11/18 00:25:13;;;;;;;28.05;14.02;;;9.30;90.80;;;;;;5068524;28;20012;-75
2021/11/18 00:27:39;;;;;;;28.88;14.40;;;9.30;90.80;;;;;;5081159;28;20031;-74
2021/11/18 00:30:08;;;;;;;26.70;13.65;;;9.30;90.80;;;;;;5081243;28;20020;-75
2021/11/18 00:32:35;;;;;;;29.55;13.90;;;9.30;90.80;;;;;;5080664;28;20032;-75
2021/11/18 00:35:03;;;;;;;36.00;15.98;;;9.30;90.90;;;;;;5081216;28;20063;-75
2021/11/18 00:37:29;;;;;;;28.20;14.63;;;9.40;91.20;;;;;;5080861;28;20554;-75
2021/11/18 00:39:55;;;;;;;27.77;13.25;;;9.40;91.40;;;;;;5080845;28;20017;-75
2021/11/18 00:42:20;;;;;;;23.02;11.85;;;9.40;91.20;;;;;;5080807;28;20064;-75
2021/11/18 00:44:46;;;;;;;25.67;12.30;;;9.40;91.20;;;;;;5080979;28;20090;-75
2021/11/18 00:47:12;;;;;;;33.22;14.10;;;9.40;91.20;;;;;;5066872;28;20029;-75
2021/11/18 00:49:38;;;;;;;22.45;13.60;;;9.40;91.30;;;;;;5079498;28;20024;-75
2021/11/18 00:52:04;;;;;;;26.00;13.30;;;9.40;91.40;;;;;;5079121;28;20568;-74
2021/11/18 00:54:30;;;;;;;28.55;14.13;;;9.40;91.40;;;;;;5074309;28;20024;-74
2021/11/18 00:56:58;;;;;;;30.48;13.60;;;9.40;91.40;;;;;;5080520;28;20074;-75
2021/11/18 00:59:24;;;;;;;23.40;13.00;;;9.40;91.30;;;;;;5080793;28;20028;-74
2021/11/18 01:01:52;;;;;;;23.42;12.40;;;9.40;91.20;;;;;;5080205;28;20403;-75
2021/11/18 01:04:19;;;;;;;23.17;12.85;;;9.30;91.10;;;;;;5080393;28;20024;-75
2021/11/18 01:06:47;;;;;;;18.20;11.73;;;9.40;91.20;;;;;;5080293;28;20028;-75
2021/11/18 01:09:13;;;;;;;26.85;11.98;;;9.30;91.00;;;;;;5080313;28;20029;-75
2021/11/18 01:11:39;;;;;;;25.55;13.70;;;9.30;90.90;;;;;;5080097;28;20036;-74
2021/11/18 01:14:08;;;;;;;29.65;13.13;;;9.30;90.90;;;;;;5080247;28;20013;-75
2021/11/18 01:16:36;;;;;;;27.02;12.73;;;9.30;90.90;;;;;;5080107;28;20016;-74
2021/11/18 01:19:04;;;;;;;27.15;12.52;;;9.30;90.90;;;;;;5080076;28;20032;-75
2021/11/18 01:21:29;;;;;;;28.27;12.25;;;9.30;90.90;;;;;;5080092;28;20081;-75
2021/11/18 01:23:56;;;;;;;27.85;13.07;;;9.30;90.90;;;;;;5080054;28;20093;-75
2021/11/18 01:26:22;;;;;;;31.13;14.43;;;9.30;91.00;;;;;;5077987;28;20031;-75
2021/11/18 01:28:49;;;;;;;32.83;14.88;;;9.30;91.00;;;;;;5079505;28;20099;-75
2021/11/18 01:31:16;;;;;;;28.27;12.13;;;9.30;90.90;;;;;;5079847;28;20025;-75
2021/11/18 01:33:42;;;;;;;27.58;13.70;;;9.30;90.90;;;;;;5079514;28;20026;-75
2021/11/18 01:36:08;;;;;;;25.52;13.23;;;9.30;90.90;;;;;;5079567;28;20099;-75
2021/11/18 01:38:35;;;;;;;28.67;13.52;;;9.30;91.10;;;;;;5079850;28;20016;-75
2021/11/18 01:41:08;;;;;;;23.55;12.88;;;9.30;91.30;;;;;;5079729;28;20482;-74
2021/11/18 01:43:41;;;;;;;24.60;13.57;;;9.30;91.30;;;;;;5078398;28;20021;-75
2021/11/18 01:46:11;;;;;;;22.80;11.88;;;9.30;91.10;;;;;;5074396;28;20029;-75
2021/11/18 01:48:38;;;;;;;29.50;11.50;;;9.30;91.10;;;;;;5071875;28;20020;-75
2021/11/18 01:51:06;;;;;;;25.92;12.00;;;9.30;91.00;;;;;;5079407;28;20052;-75
2021/11/18 01:53:37;;;;;;;27.05;12.68;;;9.40;91.10;;;;;;5074571;28;20088;-75
2021/11/18 01:56:06;;;;;;;27.63;12.18;;;9.30;91.00;;;;;;5066471;28;20025;-75
2021/11/18 01:58:32;;;;;;;26.10;12.45;;;9.30;91.00;;;;;;5079398;28;20024;-75
2021/11/18 02:00:59;;;;;;;30.50;12.55;;;9.30;91.10;;;;;;5079550;28;20020;-75
2021/11/18 02:03:25;;;;;;;29.13;12.00;;;9.30;91.40;;;;;;5079005;28;20028;-75
2021/11/18 02:05:57;;;;;;;24.25;10.98;;;9.30;91.40;;;;;;5079463;28;20058;-75
2021/11/18 02:08:23;;;;;;;26.50;11.23;;;9.40;91.30;;;;;;5077915;28;20024;-75
2021/11/18 02:10:53;;;;;;;22.20;11.73;;;9.30;91.10;;;;;;5078028;28;20028;-75
2021/11/18 02:13:21;;;;;;;19.65;10.45;;;9.30;91.10;;;;;;5077886;28;20024;-75
2021/11/18 02:15:54;;;;;;;26.48;11.38;;;9.30;91.00;;;;;;5079178;28;20021;-75
2021/11/18 02:18:30;;;;;;;25.25;11.18;;;9.30;91.10;;;;;;5078765;28;20441;-75
2021/11/18 02:20:59;;;;;;;21.50;10.70;;;9.30;91.00;;;;;;5079124;28;20089;-75
2021/11/18 02:23:30;;;;;;;26.83;11.30;;;9.30;90.90;;;;;;5078838;28;20029;-75
2021/11/18 02:25:57;;;;;;;24.52;12.00;;;9.30;91.10;;;;;;5077468;28;20040;-75
2021/11/18 02:28:26;;;;;;;26.38;10.82;;;9.30;91.40;;;;;;5078958;28;20051;-75
2021/11/18 02:30:55;;;;;;;23.33;10.77;;;9.30;91.40;;;;;;5078836;28;20099;-75
2021/11/18 02:33:22;;;;;;;23.05;11.30;;;9.30;91.30;;;;;;5078317;28;20465;-75
2021/11/18 02:35:49;;;;;;;21.20;10.13;;;9.30;91.30;;;;;;5078600;28;20020;-75
2021/11/18 02:38:17;;;;;;;17.58;10.32;;;9.20;91.20;;;;;;5078177;28;20055;-75
2021/11/18 02:40:44;;;;;;;28.23;11.07;;;9.20;91.30;;;;;;5078504;28;20456;-75
2021/11/18 02:43:15;;;;;;;29.67;13.05;;;9.20;91.20;;;;;;5078520;28;20074;-75
2021/11/18 02:45:43;;;;;;;29.33;11.98;;;9.20;91.20;;;;;;5076880;28;20080;-75
2021/11/18 02:48:10;;;;;;;24.38;10.70;;;9.20;91.30;;;;;;5066876;28;20031;-75
2021/11/18 02:50:38;;;;;;;20.67;10.60;;;9.20;91.10;;;;;;5078376;28;20457;-75
2021/11/18 02:53:05;;;;;;;18.52;9.82;;;9.20;91.00;;;;;;5077930;28;20059;-75
2021/11/18 02:55:38;;;;;;;26.58;10.48;;;9.20;90.90;;;;;;5074114;28;20023;-75
2021/11/18 02:58:05;;;;;;;21.95;9.88;;;9.10;90.90;;;;;;5078452;28;20031;-75
2021/11/18 03:00:45;;;;;;;26.13;11.80;;;9.10;90.90;;;;;;5078152;28;20368;-75
2021/11/18 03:03:11;;;;;;;21.23;10.07;;;9.10;90.90;;;;;;5077993;28;20020;-75
2021/11/18 03:05:37;;;;;;;23.23;10.52;;;9.10;90.90;;;;;;5078475;28;20112;-75
2021/11/18 03:08:03;;;;;;;22.48;10.60;;;9.00;91.10;;;;;;5078189;28;20062;-75
2021/11/18 03:10:30;;;;;;;22.10;10.82;;;9.00;91.00;;;;;;5077953;28;20047;-75
2021/11/18 03:12:58;;;;;;;26.75;10.70;;;9.00;91.00;;;;;;5078009;28;20078;-75
2021/11/18 03:15:25;;;;;;;24.90;10.50;;;9.00;91.10;;;;;;5078081;28;20029;-75
2021/11/18 03:17:51;;;;;;;23.70;10.82;;;9.10;91.20;;;;;;5077509;28;20055;-76
2021/11/18 03:20:20;;;;;;;26.00;10.25;;;9.00;91.20;;;;;;5077979;28;20020;-76
2021/11/18 03:22:46;;;;;;;24.75;10.80;;;9.00;91.20;;;;;;5077782;28;20024;-75
2021/11/18 03:25:16;;;;;;;19.92;9.35;;;9.00;91.10;;;;;;5077838;28;20027;-75
2021/11/18 03:27:43;;;;;;;23.33;10.50;;;9.10;91.10;;;;;;5077694;28;20020;-75
2021/11/18 03:30:12;;;;;;;22.85;10.88;;;9.00;91.00;;;;;;5077736;28;20036;-75
2021/11/18 03:32:38;;;;;;;32.40;11.68;;;9.10;91.00;;;;;;5077197;28;20055;-75
2021/11/18 03:35:05;;;;;;;21.80;10.60;;;9.10;91.30;;;;;;5077842;28;20024;-75
2021/11/18 03:37:31;;;;;;;23.55;9.18;;;9.00;91.20;;;;;;5077512;28;20038;-76
2021/11/18 03:39:57;;;;;;;27.98;10.18;;;9.00;91.10;;;;;;5076242;28;20112;-76
2021/11/18 03:42:23;;;;;;;22.23;10.52;;;9.00;91.00;;;;;;5077509;28;20028;-76
2021/11/18 03:44:49;;;;;;;22.42;9.45;;;9.00;91.00;;;;;;5077609;28;20021;-75
2021/11/18 03:47:17;;;;;;;18.98;9.52;;;9.00;91.10;;;;;;5063846;28;20047;-76
2021/11/18 03:49:43;;;;;;;24.25;10.80;;;9.00;91.10;;;;;;5076945;28;20365;-76
2021/11/18 03:52:13;;;;;;;26.92;10.75;;;9.00;91.20;;;;;;5077177;28;20082;-76
2021/11/18 03:54:41;;;;;;;29.05;11.77;;;9.00;91.30;;;;;;5073013;28;20044;-75
2021/11/18 03:57:07;;;;;;;24.90;10.55;;;9.00;91.20;;;;;;5077420;28;20035;-75
2021/11/18 03:59:36;;;;;;;18.23;9.40;;;8.90;91.10;;;;;;5077392;28;20376;-75
2021/11/18 04:02:03;;;;;;;25.67;10.20;;;8.90;91.00;;;;;;5076943;28;20084;-75
2021/11/18 04:04:36;;;;;;;21.55;9.88;;;8.90;90.90;;;;;;5077456;28;20506;-76
2021/11/18 04:07:01;;;;;;;17.35;8.88;;;8.90;90.90;;;;;;5075961;28;20021;-76
2021/11/18 04:09:27;;;;;;;18.00;9.50;;;8.90;90.90;;;;;;5077221;28;20044;-75
2021/11/18 04:11:59;;;;;;;16.23;8.88;;;8.80;90.90;;;;;;5077104;28;20027;-75
2021/11/18 04:14:27;;;;;;;22.48;10.98;;;8.80;90.90;;;;;;5077392;28;20031;-76
2021/11/18 04:16:52;;;;;;;24.58;12.27;;;8.80;91.00;;;;;;5075443;28;20395;-75
2021/11/18 04:19:18;;;;;;;24.55;10.60;;;8.70;91.10;;;;;;5075917;28;20029;-75
2021/11/18 04:21:45;;;;;;;22.02;11.75;;;8.70;91.10;;;;;;5077056;28;20019;-75
2021/11/18 04:24:15;;;;;;;25.35;10.43;;;8.70;91.00;;;;;;5077008;28;20029;-75
2021/11/18 04:26:41;;;;;;;18.20;9.95;;;8.70;90.90;;;;;;5064523;28;20020;-75
2021/11/18 04:29:08;;;;;;;20.77;9.57;;;8.70;90.90;;;;;;5076984;28;20379;-75
2021/11/18 04:31:34;;;;;;;23.33;10.57;;;8.60;90.90;;;;;;5077284;28;20020;-75
2021/11/18 04:34:01;;;;;;;20.08;9.93;;;8.60;90.80;;;;;;5076519;28;20017;-75
2021/11/18 04:36:28;;;;;;;19.75;9.52;;;8.50;90.80;;;;;;5076993;28;20060;-75
2021/11/18 04:38:55;;;;;;;26.45;11.85;;;8.50;90.80;;;;;;5076939;28;20017;-75
2021/11/18 04:41:23;;;;;;;22.67;11.70;;;8.40;90.80;;;;;;5077050;28;20021;-75
2021/11/18 04:43:50;;;;;;;21.65;11.63;;;8.40;90.70;;;;;;5075464;28;20509;-75
2021/11/18 04:46:16;;;;;;;25.05;12.07;;;8.40;90.70;;;;;;5075582;28;20028;-75
2021/11/18 04:48:42;;;;;;;19.02;10.32;;;8.30;90.70;;;;;;5076674;28;20021;-75
2021/11/18 04:51:13;;;;;;;25.17;11.98;;;8.20;90.70;;;;;;5063808;28;20101;-75
2021/11/18 04:53:39;;;;;;;26.50;11.40;;;8.20;90.80;;;;;;5070862;28;20079;-75
2021/11/18 04:56:06;;;;;;;22.13;10.75;;;8.20;90.90;;;;;;5076953;28;20035;-75
2021/11/18 04:58:32;;;;;;;26.80;11.35;;;8.20;91.00;;;;;;5076919;28;20020;-75
2021/11/18 05:00:58;;;;;;;21.27;10.80;;;8.10;91.10;;;;;;5077050;28;20024;-75
2021/11/18 05:03:26;;;;;;;22.83;10.73;;;8.10;91.00;;;;;;5080295;28;20394;-75
2021/11/18 05:05:53;;;;;;;20.95;10.82;;;8.10;91.00;;;;;;5080493;28;20391;-75
2021/11/18 05:08:19;;;;;;;20.58;9.60;;;8.10;91.20;;;;;;5080419;28;20016;-75
2021/11/18 05:10:48;;;;;;;19.30;9.70;;;8.10;91.20;;;;;;5080287;28;20067;-75
2021/11/18 05:13:15;;;;;;;27.77;11.05;;;8.10;91.10;;;;;;5080165;28;20108;-75
2021/11/18 05:15:43;;;;;;;24.77;11.07;;;8.10;91.30;;;;;;5080283;28;20058;-75
2021/11/18 05:18:09;;;;;;;24.30;11.35;;;8.20;91.60;;;;;;5079881;28;20020;-75
2021/11/18 05:20:37;;;;;;;19.75;10.15;;;8.20;91.60;;;;;;5080554;28;20028;-75
2021/11/18 05:23:03;;;;;;;16.05;9.02;;;8.10;91.40;;;;;;5080055;28;20463;-75
2021/11/18 05:25:31;;;;;;;24.08;9.80;;;8.20;91.30;;;;;;5080201;28;20112;-75
2021/11/18 05:27:58;;;;;;;19.58;9.88;;;8.20;91.30;;;;;;5079946;28;20472;-75
2021/11/18 05:30:27;;;;;;;20.85;9.85;;;8.20;91.30;;;;;;5080155;28;20020;-75
2021/11/18 05:32:57;;;;;;;21.65;10.77;;;8.20;91.30;;;;;;5079372;28;20149;-79
2021/11/18 05:35:26;;;;;;;18.88;9.63;;;8.20;91.20;;;;;;5080085;28;20029;-82
2021/11/18 05:37:52;;;;;;;17.98;10.48;;;8.20;91.20;;;;;;5079612;28;20041;-83
2021/11/18 05:40:19;;;;;;;18.92;9.77;;;8.20;91.20;;;;;;5079846;28;20032;-76
2021/11/18 05:42:44;;;;;;;22.85;10.07;;;8.20;91.10;;;;;;5066553;28;20052;-78
2021/11/18 05:45:17;;;;;;;20.92;10.63;;;8.10;91.00;;;;;;5079836;28;20028;-81
2021/11/18 05:47:44;;;;;;;21.17;10.27;;;8.10;91.10;;;;;;5078239;28;20028;-81
2021/11/18 05:50:11;;;;;;;19.25;10.02;;;8.00;91.00;;;;;;5079935;28;20040;-82
2021/11/18 05:52:39;;;;;;;25.92;10.45;;;8.00;91.10;;;;;;5079319;28;20021;-84
2021/11/18 05:55:07;;;;;;;18.55;10.00;;;8.00;91.00;;;;;;5074614;28;20031;-77
2021/11/18 05:57:33;;;;;;;17.65;9.07;;;8.00;91.20;;;;;;5079364;28;20387;-74
2021/11/18 05:59:59;;;;;;;16.65;9.30;;;8.00;91.00;;;;;;5079506;28;20031;-78
2021/11/18 06:02:26;;;;;;;19.48;9.60;;;7.90;91.00;;;;;;5078930;28;20024;-75
2021/11/18 06:04:52;;;;;;;19.42;9.50;;;7.90;91.00;;;;;;5079439;28;20032;-77
2021/11/18 06:07:18;;;;;;;21.40;10.77;;;7.90;91.30;;;;;;5079406;28;20024;-72
2021/11/18 06:09:44;;;;;;;20.02;11.38;;;7.90;91.10;;;;;;5079280;28;20104;-74
2021/11/18 06:12:12;;;;;;;22.60;10.27;;;7.90;91.20;;;;;;5079080;28;20059;-78
2021/11/18 06:14:38;;;;;;;15.05;9.90;;;7.90;91.20;;;;;;5078184;28;20020;-79
2021/11/18 06:17:04;;;;;;;18.70;9.80;;;7.90;91.20;;;;;;5079146;28;20021;-74
2021/11/18 06:19:30;;;;;;;21.17;10.85;;;8.00;91.30;;;;;;5078975;28;20104;-76
2021/11/18 06:21:57;;;;;;;18.35;11.57;;;8.00;91.30;;;;;;5079335;28;20052;-74
2021/11/18 06:24:25;;;;;;;19.55;11.25;;;8.00;91.30;;;;;;5077493;28;20028;-76
2021/11/18 06:26:52;;;;;;;19.98;11.70;;;8.00;91.30;;;;;;5079156;28;20375;-77
2021/11/18 06:29:21;;;;;;;18.33;11.95;;;7.90;91.30;;;;;;5078816;28;20046;-76
2021/11/18 06:31:48;;;;;;;21.90;11.60;;;8.00;91.30;;;;;;5078508;28;20028;-76
2021/11/18 06:34:15;;;;;;;18.20;10.00;;;7.90;91.30;;;;;;5078743;28;20020;-75
2021/11/18 06:36:41;;;;;;;17.73;10.57;;;7.90;91.30;;;;;;5078696;28;20385;-76
2021/11/18 06:39:07;;;;;;;19.15;11.30;;;7.90;91.20;;;;;;5078375;28;20048;-76
2021/11/18 06:41:32;;;;;;;18.77;10.98;;;7.90;91.20;;;;;;5077305;28;20025;-77
2021/11/18 06:43:58;;;;;;;22.92;13.05;;;7.80;91.20;;;;;;5078283;28;20432;-76
2021/11/18 06:46:26;;;;;;;17.75;10.38;;;7.80;91.20;;;;;;5077077;28;20035;-77
2021/11/18 06:48:53;;;;;;;19.75;10.52;;;7.80;91.20;;;;;;5078111;28;20016;-77
2021/11/18 06:51:22;;;;;;;21.73;11.00;;;7.80;91.10;;;;;;5078626;28;20024;-76
2021/11/18 06:53:50;;;;;;;22.88;10.75;;;7.70;91.10;;;;;;5073346;28;20016;-76
2021/11/18 06:56:17;;;;;;;20.27;10.80;;;7.70;91.10;;;;;;5078487;28;20031;-76
2021/11/18 06:58:42;;;;;;;24.35;12.38;;;7.70;91.30;;;;;;5078123;28;20020;-77
2021/11/18 07:01:10;;;;;;;23.08;10.80;;;7.70;91.70;;;;;;5077733;28;20541;-77
2021/11/18 07:03:39;;;;;;;22.17;10.90;;;7.70;91.80;;;;;;5076968;28;20024;-77
2021/11/18 07:06:11;;;;;;;20.63;9.88;;;7.70;91.70;;;;;;5077974;28;20031;-76
2021/11/18 07:08:37;;;;;;;20.25;10.25;;;7.70;91.50;;;;;;5078012;28;20371;-76
2021/11/18 07:11:03;;;;;;;20.08;11.13;;;7.60;91.40;;;;;;5078259;28;20050;-76
2021/11/18 07:13:32;;;;;;;24.42;11.68;;;7.70;91.50;;;;;;5077777;28;20530;-77
2021/11/18 07:16:04;;;;;;;25.63;11.13;;;7.70;91.90;;;;;;5078016;28;20515;-77
2021/11/18 07:18:30;;;;;;;24.00;12.18;;;7.80;92.10;;;;;;5077573;28;20028;-77
2021/11/18 07:20:58;;;;;;;23.88;11.93;;;7.80;92.20;;;;;;5078034;28;20040;-77
2021/11/18 07:23:24;;;;;;;16.92;9.65;;;7.80;92.30;;;;;;5077743;28;20023;-76
2021/11/18 07:25:53;;;;;;;20.75;10.48;;;7.80;92.10;;;;;;5077763;28;20433;-77
2021/11/18 07:28:20;;;;;;;21.85;9.70;;;7.80;91.90;;;;;;5064622;28;20028;-77
2021/11/18 07:30:47;;;;;;;22.13;10.30;;;7.80;91.80;;;;;;5077800;28;20032;-76
2021/11/18 07:33:14;;;;;;;23.90;10.88;;;7.80;91.70;;;;;;5077333;28;20054;-77
2021/11/18 07:35:41;;;;;;;22.73;10.50;;;7.80;91.90;;;;;;5077585;28;20025;-76
2021/11/18 07:38:06;;;;;;;20.38;9.98;;;7.80;92.10;;;;;;5077624;28;20511;-77
2021/11/18 07:40:33;;;;;;;17.20;9.00;;;7.90;92.30;;;;;;5076130;28;20090;-77
2021/11/18 07:42:59;;;;;;;17.38;8.73;;;7.90;92.30;;;;;;5077629;28;20024;-76
2021/11/18 07:45:26;;;;;;;16.38;8.82;;;7.90;92.20;;;;;;5077600;28;20028;-77
2021/11/18 07:47:53;;;;;;;20.42;9.77;;;7.90;92.00;;;;;;5063816;28;20020;-77
2021/11/18 07:50:20;;;;;;;21.52;10.23;;;7.90;91.90;;;;;;5077625;28;20035;-76
2021/11/18 07:52:46;;;;;;;30.50;12.98;;;7.90;91.80;;;;;;5077420;28;20016;-77
2021/11/18 07:55:15;;;;;;;21.88;12.55;;;7.80;91.80;;;;;;5072539;28;20502;-76
2021/11/18 07:57:41;;;;;;;25.70;14.73;;;7.90;91.70;;;;;;5077591;28;20028;-77
2021/11/18 08:00:10;;;;;;;29.58;15.32;;;7.80;91.60;;;;;;5077292;28;20024;-77
2021/11/18 08:02:36;;;;;;;25.50;14.77;;;7.80;91.80;;;;;;5077153;28;20025;-76
2021/11/18 08:05:03;;;;;;;26.65;14.48;;;7.80;91.60;;;;;;5077462;28;20115;-77
2021/11/18 08:07:28;;;;;;;22.27;13.75;;;7.80;91.60;;;;;;5077507;28;20052;-77
2021/11/18 08:09:55;;;;;;;23.85;13.00;;;7.90;91.60;;;;;;5077104;28;20028;-77
2021/11/18 08:12:21;;;;;;;23.23;14.50;;;7.90;91.70;;;;;;5077314;28;20399;-76
2021/11/18 08:14:47;;;;;;;22.55;13.38;;;8.00;91.80;;;;;;5075708;28;20025;-76
2021/11/18 08:17:13;;;;;;;25.65;13.48;;;8.00;91.80;;;;;;5075660;28;20031;-77
2021/11/18 08:19:39;;;;;;;22.88;12.43;;;8.10;91.90;;;;;;5077070;28;20025;-76
2021/11/18 08:22:05;;;;;;;21.42;11.18;;;8.20;91.90;;;;;;5077296;28;20023;-76
2021/11/18 08:24:31;;;;;;;22.58;10.45;;;8.30;91.90;;;;;;5077008;28;20029;-77
2021/11/18 08:26:58;;;;;;;32.17;17.15;;;8.30;91.90;;;;;;5077250;28;20028;-77
2021/11/18 08:29:27;;;;;;;48.78;25.05;;;8.40;91.90;;;;;;5077144;28;20051;-77
2021/11/18 08:31:54;;;;;;;38.97;21.10;;;8.50;92.00;;;;;;5076536;28;20025;-77
2021/11/18 08:34:20;;;;;;;32.50;17.48;;;8.50;91.90;;;;;;5076817;28;20073;-76
2021/11/18 08:36:47;;;;;;;27.17;15.80;;;8.60;91.90;;;;;;5078377;28;20051;-77
2021/11/18 08:39:19;;;;;;;23.20;14.07;;;8.70;91.90;;;;;;5080673;28;20021;-77
2021/11/18 08:41:54;;;;;;;22.90;12.30;;;8.80;91.90;;;;;;5080844;28;20099;-77
2021/11/18 08:44:22;;;;;;;20.95;12.15;;;8.80;91.80;;;;;;5080605;28;20263;-76
2021/11/18 08:46:48;;;;;;;20.75;11.80;;;9.00;91.90;;;;;;5069617;28;20025;-76
2021/11/18 08:49:16;;;;;;;18.20;9.88;;;9.00;91.90;;;;;;5078092;28;20068;-77
2021/11/18 08:51:43;;;;;;;20.08;10.93;;;9.10;91.90;;;;;;5080698;28;20368;-76
2021/11/18 08:54:19;;;;;;;23.88;10.13;;;9.10;91.80;;;;;;5075560;28;20028;-76
2021/11/18 08:56:47;;;;;;;20.02;10.13;;;9.20;91.80;;;;;;5080786;28;20021;-77
2021/11/18 08:59:13;;;;;;;22.67;9.70;;;9.20;91.70;;;;;;5080333;28;20025;-76
2021/11/18 09:01:43;;;;;;;19.60;10.07;;;9.20;91.80;;;;;;5080316;28;20383;-77
2021/11/18 09:04:13;;;;;;;21.52;9.98;;;9.30;91.80;;;;;;5065967;28;20028;-76
2021/11/18 09:06:39;;;;;;;21.42;10.40;;;9.40;91.80;;;;;;5080525;28;20051;-76
2021/11/18 09:09:07;;;;;;;21.73;10.43;;;9.40;91.80;;;;;;5080276;28;20104;-77
2021/11/18 09:11:34;;;;;;;24.88;9.98;;;9.50;91.80;;;;;;5080371;28;20376;-77
2021/11/18 09:14:01;;;;;;;19.50;9.85;;;9.60;91.80;;;;;;5080034;28;20028;-77
2021/11/18 09:16:29;;;;;;;22.25;9.13;;;9.70;91.70;;;;;;5080081;28;20035;-77
2021/11/18 09:18:55;;;;;;;21.90;10.23;;;9.80;91.80;;;;;;5080234;28;20024;-77
2021/11/18 09:21:23;;;;;;;19.75;10.57;;;9.80;91.80;;;;;;5080093;28;20013;-77
2021/11/18 09:24:15;;;;;;;20.75;9.68;;;9.90;91.80;;;;;;5080151;28;20028;-77
2021/11/18 09:26:44;;;;;;;24.35;11.57;;;10.00;91.80;;;;;;5080088;28;20036;-76
2021/11/18 09:29:10;;;;;;;28.10;12.48;;;10.10;91.90;;;;;;5078670;28;20086;-77
2021/11/18 09:31:36;;;;;;;23.45;11.68;;;10.20;91.90;;;;;;5078402;28;20033;-77
2021/11/18 09:34:03;;;;;;;31.15;10.57;;;10.30;91.90;;;;;;5079673;28;20103;-77
2021/11/18 09:36:30;;;;;;;24.42;11.25;;;10.30;91.90;;;;;;5066646;28;20041;-77
2021/11/18 09:38:58;;;;;;;23.52;10.52;;;10.40;91.90;;;;;;5079532;28;20391;-77
2021/11/18 09:41:27;;;;;;;19.58;10.73;;;10.50;91.90;;;;;;5079814;28;20044;-77
2021/11/18 09:44:14;;;;;;;25.45;11.40;;;10.50;91.80;;;;;;5079521;28;20052;-77
2021/11/18 09:47:01;;;;;;;24.92;11.20;;;10.50;91.80;;;;;;5077977;28;20119;-77
2021/11/18 09:50:11;;;;;;;18.80;10.05;;;10.60;91.70;;;;;;5078705;28;20024;-77
2021/11/18 09:53:07;;;;;;;20.92;10.93;;;10.60;91.70;;;;;;5077767;28;20096;-76
2021/11/18 09:56:06;;;;;;;23.42;9.90;;;10.70;91.70;;;;;;5075714;28;20107;-76
2021/11/18 09:58:44;;;;;;;24.67;10.13;;;10.70;91.70;;;;;;5079524;28;20035;-77
2021/11/18 10:01:31;;;;;;;22.60;9.35;;;10.80;91.70;;;;;;5079492;28;20020;-76
2021/11/18 10:04:15;;;;;;;28.00;10.15;;;10.80;91.70;;;;;;5079315;28;20032;-76
2021/11/18 10:06:41;;;;;;;21.70;10.07;;;10.90;91.40;;;;;;5079185;28;20075;-76
2021/11/18 10:09:12;;;;;;;28.02;11.23;;;11.00;91.10;;;;;;5077790;28;20025;-76
2021/11/18 10:11:59;;;;;;;22.05;9.30;;;11.10;90.90;;;;;;5079041;28;20024;-76
2021/11/18 10:14:34;;;;;;;22.75;10.82;;;11.10;91.00;;;;;;5079048;28;20818;-76
2021/11/18 10:17:18;;;;;;;29.67;10.32;;;11.10;91.00;;;;;;5078679;28;20024;-77
2021/11/18 10:19:51;;;;;;;24.83;10.25;;;11.20;91.00;;;;;;5078906;28;20031;-76
2021/11/18 10:22:20;;;;;;;20.80;10.43;;;11.30;90.80;;;;;;5079158;28;20074;-76
2021/11/18 10:24:55;;;;;;;24.13;10.63;;;11.30;90.80;;;;;;5078605;28;20039;-76
2021/11/18 10:27:50;;;;;;;23.33;9.73;;;11.30;90.80;;;;;;5078962;28;20025;-76
2021/11/18 10:30:19;;;;;;;18.30;8.93;;;11.40;90.80;;;;;;5067183;28;20056;-76
2021/11/18 10:33:00;;;;;;;18.35;10.15;;;11.50;90.90;;;;;;5078191;28;20024;-76
2021/11/18 10:35:31;;;;;;;21.58;10.52;;;11.50;91.00;;;;;;5078714;28;20422;-76
2021/11/18 10:38:18;;;;;;;21.40;9.93;;;11.60;91.00;;;;;;5078404;28;20494;-76
2021/11/18 10:41:01;;;;;;;23.88;10.43;;;11.70;91.00;;;;;;5078277;28;20098;-75
2021/11/18 10:43:31;;;;;;;24.20;11.82;;;11.70;91.00;;;;;;5078699;28;20040;-76
2021/11/18 10:46:26;;;;;;;24.42;10.55;;;11.80;91.00;;;;;;5075050;28;20025;-76
2021/11/18 10:49:09;;;;;;;22.98;10.93;;;11.80;91.00;;;;;;5072899;28;20491;-77
2021/11/18 10:51:46;;;;;;;24.17;10.10;;;11.90;90.90;;;;;;5078441;28;20025;-75
2021/11/18 10:54:16;;;;;;;25.20;10.18;;;11.90;90.90;;;;;;5073287;28;20364;-76
2021/11/18 10:57:01;;;;;;;21.02;10.48;;;12.00;90.90;;;;;;5078266;28;20028;-75
2021/11/18 10:59:37;;;;;;;33.13;11.20;;;12.10;91.00;;;;;;5066721;28;20031;-75
2021/11/18 11:02:24;;;;;;;25.27;10.95;;;12.20;90.80;;;;;;5077719;28;20024;-76
2021/11/18 11:04:55;;;;;;;21.33;10.55;;;12.40;90.80;;;;;;5078181;28;20131;-75
2021/11/18 11:07:42;;;;;;;26.05;11.23;;;12.50;90.80;;;;;;5065000;28;20055;-75
2021/11/18 11:10:15;;;;;;;22.52;11.48;;;12.70;91.00;;;;;;5077792;28;20086;-75
2021/11/18 11:13:04;;;;;;;28.27;10.75;;;12.90;91.10;;;;;;5077826;28;20076;-75
2021/11/18 11:15:48;;;;;;;22.50;10.00;;;13.20;91.20;;;;;;5078060;28;20052;-75
2021/11/18 11:18:17;;;;;;;24.13;9.43;;;13.40;91.00;;;;;;5074151;28;20021;-77
2021/11/18 11:21:15;;;;;;;24.27;10.30;;;13.50;90.80;;;;;;5077933;28;20031;-75
2021/11/18 11:24:18;;;;;;;24.33;9.30;;;13.60;90.50;;;;;;5061261;28;20051;-77
2021/11/18 11:27:04;;;;;;;21.80;10.15;;;13.60;90.00;;;;;;5064579;28;20048;-78
2021/11/18 11:29:46;;;;;;;20.38;8.65;;;13.60;89.20;;;;;;5077697;28;20456;-75
2021/11/18 11:33:03;;;;;;;20.40;8.90;;;13.60;89.00;;;;;;5077348;28;20528;-75
2021/11/18 11:36:01;;;;;;;22.85;6.75;;;13.60;87.90;;;;;;5058273;28;20090;-75
2021/11/18 11:38:37;;;;;;;17.65;7.78;;;13.60;87.50;;;;;;5068192;28;20041;-75
2021/11/18 11:41:25;;;;;;;25.05;9.18;;;13.60;87.90;;;;;;5077571;28;20556;-75
2021/11/18 11:44:21;;;;;;;25.08;10.00;;;13.60;88.20;;;;;;5077471;28;20035;-75
2021/11/18 11:47:02;;;;;;;26.20;11.00;;;13.70;88.70;;;;;;5066691;28;20552;-75
2021/11/18 11:49:30;;;;;;;24.42;11.40;;;13.70;89.00;;;;;;5076812;28;20036;-75
2021/11/18 11:52:26;;;;;;;29.33;12.77;;;13.70;89.20;;;;;;5077558;28;20077;-76
2021/11/18 11:55:20;;;;;;;33.60;14.82;;;13.80;89.40;;;;;;5068606;28;20031;-76
2021/11/18 11:58:09;;;;;;;27.23;13.05;;;13.90;89.20;;;;;;5065530;28;20078;-76
2021/11/18 12:00:46;;;;;;;25.80;10.35;;;14.00;89.00;;;;;;5077126;28;20082;-76
2021/11/18 12:03:23;;;;;;;25.58;8.43;;;14.00;88.90;;;;;;5077170;28;20475;-76
2021/11/18 12:05:54;;;;;;;20.05;6.05;;;14.10;88.40;;;;;;5065222;28;20021;-76
2021/11/18 12:08:59;;;;;;;19.45;5.28;;;14.10;87.70;;;;;;5077423;28;20036;-76
2021/11/18 12:11:51;;;;;;;15.30;3.78;;;14.10;85.50;;;;;;5073325;28;20074;-76
2021/11/18 12:14:33;;;;;;;17.88;3.60;;;14.10;84.50;;;;;;5077225;28;20115;-76
2021/11/18 12:17:10;;;;;;;25.52;4.97;;;14.10;84.00;;;;;;5068098;28;20021;-76
2021/11/18 12:19:57;;;;;;;22.67;4.18;;;14.10;83.70;;;;;;5077205;28;20074;-76
2021/11/18 12:22:28;;;;;;;25.65;4.53;;;14.10;82.50;;;;;;5077291;28;20020;-77
2021/11/18 12:25:09;;;;;;;25.58;5.95;;;14.10;81.20;;;;;;5076956;28;20024;-76
2021/11/18 12:27:40;;;;;;;22.35;4.50;;;14.10;78.50;;;;;;5077354;28;20021;-76
2021/11/18 12:30:48;;;;;;;14.38;4.15;;;14.10;78.90;;;;;;5077201;28;20033;-77
2021/11/18 12:33:20;;;;;;;21.15;4.25;;;14.10;79.60;;;;;;5069743;28;20025;-77
2021/11/18 12:36:04;;;;;;;20.75;4.53;;;14.10;78.90;;;;;;5077255;28;20084;-77
2021/11/18 12:38:38;;;;;;;20.02;4.88;;;14.10;80.70;;;;;;5077101;28;20115;-76
2021/11/18 12:41:10;;;;;;;21.73;5.38;;;14.10;80.40;;;;;;5076929;28;20013;-76
2021/11/18 12:44:13;;;;;;;23.47;5.70;;;14.10;81.70;;;;;;5076906;28;20028;-76
2021/11/18 12:46:57;;;;;;;;;;;14.10;81.60;;;;;;5067516;28;20048;-77
2021/11/18 12:49:52;;;;;;;26.55;9.20;;;14.10;82.70;;;;;;5091317;28;19904;-75
2021/11/18 12:52:59;;;;;;;28.00;9.30;;;14.20;81.40;;;;;;5076732;28;20031;-75
2021/11/18 12:56:03;;;;;;;29.17;11.95;;;14.20;82.30;;;;;;5076048;28;20502;-75
2021/11/18 12:58:48;;;;;;;;;;;14.10;82.20;;;;;;5077235;28;20024;-75